createdAt,value
2023-03-06T00:00:37.852Z,13.18
2023-03-06T00:03:05.217Z,14.75
2023-03-06T00:05:32.001Z,13.25
2023-03-06T00:07:58.920Z,13.65
2023-03-06T00:10:28.761Z,13.98
2023-03-06T00:12:58.273Z,13.25
2023-03-06T00:15:26.508Z,13.57
2023-03-06T00:17:53.760Z,14.32
2023-03-06T00:20:21.294Z,15.63
2023-03-06T00:22:48.770Z,13.65
2023-03-06T00:25:18.658Z,12.05
2023-03-06T00:27:45.723Z,11.80
2023-03-06T00:30:17.075Z,13.05
2023-03-06T00:32:44.932Z,12.75
2023-03-06T00:35:12.567Z,12.32
2023-03-06T00:37:39.949Z,12.48
2023-03-06T00:40:08.818Z,12.75
2023-03-06T00:42:35.567Z,14.07
2023-03-06T00:45:02.323Z,16.50
2023-03-06T00:47:29.037Z,13.32
2023-03-06T00:49:55.698Z,16.02
2023-03-06T00:52:22.477Z,17.30
2023-03-06T00:54:49.468Z,19.58
2023-03-06T00:57:16.263Z,14.25
2023-03-06T00:59:43.152Z,15.38
2023-03-06T01:02:10.193Z,16.92
2023-03-06T01:04:37.113Z,16.38
2023-03-06T01:07:03.778Z,14.75
2023-03-06T01:09:30.572Z,16.35
2023-03-06T01:11:57.278Z,16.30
2023-03-06T01:14:24.319Z,14.32
2023-03-06T01:16:51.244Z,14.52
2023-03-06T01:19:18.516Z,14.25
2023-03-06T01:21:45.291Z,18.77
2023-03-06T01:24:12.052Z,15.35
2023-03-06T01:26:38.962Z,14.20
2023-03-06T01:29:06.362Z,14.05
2023-03-06T01:31:33.662Z,14.00
2023-03-06T01:34:00.855Z,13.93
2023-03-06T01:36:27.666Z,13.70
2023-03-06T01:38:54.427Z,13.25
2023-03-06T01:41:21.524Z,15.02
2023-03-06T01:43:49.108Z,13.38
2023-03-06T01:46:42.077Z,14.55
2023-03-06T01:49:26.381Z,15.07
2023-03-06T01:52:09.974Z,14.40
2023-03-06T01:54:44.421Z,13.63
2023-03-06T01:57:19.252Z,14.55
2023-03-06T01:59:49.582Z,17.98
2023-03-06T02:02:16.727Z,17.27
2023-03-06T02:04:44.194Z,15.15
2023-03-06T02:07:11.610Z,17.35
2023-03-06T02:09:38.739Z,15.75
2023-03-06T02:12:11.951Z,15.65
2023-03-06T02:14:39.895Z,15.38
2023-03-06T02:17:08.626Z,18.77
2023-03-06T02:19:50.351Z,16.63
2023-03-06T02:22:17.160Z,16.05
2023-03-06T02:24:54.815Z,14.52
2023-03-06T02:27:24.238Z,16.27
2023-03-06T02:29:51.039Z,16.77
2023-03-06T02:32:17.890Z,18.77
2023-03-06T02:34:47.412Z,17.83
2023-03-06T02:37:14.161Z,17.35
2023-03-06T02:39:45.430Z,15.25
2023-03-06T02:42:21.759Z,16.52
2023-03-06T02:44:49.401Z,17.10
2023-03-06T02:47:16.165Z,17.00
2023-03-06T02:49:42.866Z,17.35
2023-03-06T02:52:09.786Z,16.60
2023-03-06T02:54:36.508Z,17.60
2023-03-06T02:57:03.526Z,16.38
2023-03-06T02:59:30.273Z,17.30
2023-03-06T03:01:57.089Z,18.02
2023-03-06T03:04:24.125Z,15.73
2023-03-06T03:06:50.897Z,16.08
2023-03-06T03:09:17.713Z,18.08
2023-03-06T03:11:44.745Z,17.17
2023-03-06T03:14:11.868Z,16.65
2023-03-06T03:16:39.272Z,17.48
2023-03-06T03:19:06.145Z,16.58
2023-03-06T03:21:32.966Z,15.68
2023-03-06T03:23:59.688Z,16.30
2023-03-06T03:26:26.413Z,17.88
2023-03-06T03:28:53.098Z,15.90
2023-03-06T03:31:19.879Z,21.00
2023-03-06T03:33:46.980Z,16.70
2023-03-06T03:36:13.748Z,17.02
2023-03-06T03:38:40.461Z,16.83
2023-03-06T03:41:07.130Z,16.98
2023-03-06T03:43:34.072Z,16.05
2023-03-06T03:46:01.027Z,16.30
2023-03-06T03:48:27.791Z,17.25
2023-03-06T03:50:54.567Z,19.25
2023-03-06T03:53:21.518Z,21.17
2023-03-06T03:55:48.897Z,17.52
2023-03-06T03:58:15.765Z,18.83
2023-03-06T04:00:42.469Z,21.63
2023-03-06T04:03:09.189Z,16.35
2023-03-06T04:05:35.995Z,18.98
2023-03-06T04:08:03.545Z,20.85
2023-03-06T04:10:30.401Z,21.27
2023-03-06T04:12:57.545Z,21.42
2023-03-06T04:15:24.481Z,21.33
2023-03-06T04:17:51.520Z,17.90
2023-03-06T04:20:18.689Z,21.35
2023-03-06T04:22:45.445Z,18.58
2023-03-06T04:25:12.218Z,22.80
2023-03-06T04:27:39.038Z,18.45
2023-03-06T04:30:07.075Z,19.02
2023-03-06T04:32:33.987Z,17.17
2023-03-06T04:35:00.709Z,18.95
2023-03-06T04:37:27.563Z,18.38
2023-03-06T04:39:54.465Z,16.95
2023-03-06T04:42:21.214Z,17.77
2023-03-06T04:44:47.988Z,18.45
2023-03-06T04:47:14.756Z,17.95
2023-03-06T04:49:41.560Z,16.73
2023-03-06T04:52:08.528Z,17.85
2023-03-06T04:54:35.255Z,18.00
2023-03-06T04:57:02.290Z,15.77
2023-03-06T04:59:29.082Z,15.07
2023-03-06T05:01:56.049Z,17.45
2023-03-06T05:04:25.867Z,17.45
2023-03-06T05:06:52.636Z,17.60
2023-03-06T05:09:19.347Z,19.05
2023-03-06T05:11:46.205Z,21.55
2023-03-06T05:14:13.012Z,22.80
2023-03-06T05:16:39.916Z,18.40
2023-03-06T05:19:06.596Z,22.58
2023-03-06T05:21:33.350Z,21.05
2023-03-06T05:24:00.046Z,19.30
2023-03-06T05:26:26.763Z,20.17
2023-03-06T05:28:55.527Z,18.17
2023-03-06T05:31:22.324Z,18.67
2023-03-06T05:33:49.339Z,19.25
2023-03-06T05:36:15.993Z,18.00
2023-03-06T05:38:42.750Z,16.30
2023-03-06T05:41:14.605Z,20.17
2023-03-06T05:43:41.885Z,19.92
2023-03-06T05:46:11.185Z,17.92
2023-03-06T05:48:38.009Z,22.33
2023-03-06T05:51:06.108Z,16.98
2023-03-06T05:53:33.259Z,18.13
2023-03-06T05:56:03.808Z,19.20
2023-03-06T05:58:32.697Z,18.00
2023-03-06T06:00:59.755Z,19.85
2023-03-06T06:03:27.028Z,20.23
2023-03-06T06:05:53.790Z,16.90
2023-03-06T06:08:21.189Z,17.42
2023-03-06T06:10:47.950Z,17.27
2023-03-06T06:13:14.698Z,19.05
2023-03-06T06:15:41.534Z,17.33
2023-03-06T06:18:08.326Z,19.00
2023-03-06T06:20:36.806Z,16.15
2023-03-06T06:23:03.539Z,15.55
2023-03-06T06:25:30.218Z,17.70
2023-03-06T06:27:57.808Z,18.67
2023-03-06T06:30:24.904Z,17.30
2023-03-06T06:32:51.552Z,17.23
2023-03-06T06:35:18.352Z,20.70
2023-03-06T06:37:45.070Z,16.60
2023-03-06T06:40:12.174Z,19.85
2023-03-06T06:42:40.251Z,15.27
2023-03-06T06:45:11.098Z,17.17
2023-03-06T06:47:41.334Z,19.00
2023-03-06T06:50:12.516Z,23.67
2023-03-06T06:52:39.446Z,19.80
2023-03-06T06:55:06.748Z,16.50
2023-03-06T06:57:33.524Z,18.02
2023-03-06T07:00:00.287Z,15.60
2023-03-06T07:02:26.969Z,15.95
2023-03-06T07:05:03.665Z,15.90
2023-03-06T07:07:34.221Z,16.33
2023-03-06T07:10:00.988Z,17.02
2023-03-06T07:12:28.001Z,24.50
2023-03-06T07:14:54.718Z,18.60
2023-03-06T07:17:21.518Z,21.98
2023-03-06T07:19:48.673Z,16.10
2023-03-06T07:22:15.560Z,18.10
2023-03-06T07:24:42.374Z,15.52
2023-03-06T07:27:09.066Z,15.90
2023-03-06T07:29:35.831Z,16.63
2023-03-06T07:32:02.954Z,15.88
2023-03-06T07:34:29.828Z,15.98
2023-03-06T07:36:56.551Z,18.77
2023-03-06T07:39:23.357Z,15.80
2023-03-06T07:41:52.307Z,16.23
2023-03-06T07:44:19.036Z,14.10
2023-03-06T07:46:45.783Z,14.65
2023-03-06T07:49:12.525Z,16.55
2023-03-06T07:51:39.266Z,15.77
2023-03-06T07:54:05.936Z,17.80
2023-03-06T07:56:34.883Z,15.88
2023-03-06T07:59:01.802Z,13.63
2023-03-06T08:01:28.666Z,14.90
2023-03-06T08:03:55.883Z,14.77
2023-03-06T08:06:25.490Z,16.33
2023-03-06T08:08:53.796Z,16.30
2023-03-06T08:11:22.289Z,19.20
2023-03-06T08:13:49.319Z,16.63
2023-03-06T08:16:17.466Z,21.13
2023-03-06T08:18:46.174Z,13.95
2023-03-06T08:21:16.033Z,17.80
2023-03-06T08:23:43.116Z,14.48
2023-03-06T08:26:18.361Z,14.38
2023-03-06T08:28:45.826Z,15.23
2023-03-06T08:31:27.226Z,16.35
2023-03-06T08:33:55.165Z,15.35
2023-03-06T08:36:22.452Z,16.25
2023-03-06T08:38:49.388Z,15.40
2023-03-06T08:41:16.209Z,19.83
2023-03-06T08:43:43.157Z,13.27
2023-03-06T08:46:11.038Z,15.25
2023-03-06T08:48:38.661Z,14.35
2023-03-06T08:51:07.888Z,15.60
2023-03-06T08:53:43.182Z,15.23
2023-03-06T08:56:23.159Z,14.30
2023-03-06T08:58:50.315Z,14.40
2023-03-06T09:01:37.545Z,14.85
2023-03-06T09:04:08.009Z,14.95
2023-03-06T09:06:37.906Z,14.73
2023-03-06T09:09:05.184Z,13.25
2023-03-06T09:11:32.760Z,13.93
2023-03-06T09:13:59.547Z,15.85
2023-03-06T09:16:26.717Z,20.35
2023-03-06T09:18:54.212Z,14.93
2023-03-06T09:21:22.125Z,14.90
2023-03-06T09:23:48.828Z,13.50
2023-03-06T09:26:15.527Z,14.77
2023-03-06T09:28:42.449Z,19.88
2023-03-06T09:31:13.671Z,26.52
2023-03-06T09:33:40.484Z,17.52
2023-03-06T09:36:13.613Z,20.35
2023-03-06T09:38:40.536Z,14.88
2023-03-06T09:41:33.700Z,14.13
2023-03-06T09:44:26.038Z,18.65
2023-03-06T09:47:15.176Z,13.90
2023-03-06T09:50:32.400Z,15.60
2023-03-06T09:53:02.766Z,17.35
2023-03-06T09:55:32.770Z,14.30
2023-03-06T09:58:24.290Z,12.95
2023-03-06T10:01:03.374Z,13.02
2023-03-06T10:03:45.248Z,13.18
2023-03-06T10:06:17.668Z,12.95
2023-03-06T10:09:02.663Z,12.95
2023-03-06T10:11:51.514Z,14.23
2023-03-06T10:14:49.079Z,13.85
2023-03-06T10:17:18.864Z,12.88
2023-03-06T10:19:47.667Z,12.40
2023-03-06T10:22:38.902Z,13.57
2023-03-06T10:25:33.174Z,11.83
2023-03-06T10:28:35.492Z,13.80
2023-03-06T10:31:23.161Z,12.30
2023-03-06T10:34:22.765Z,12.90
2023-03-06T10:36:50.065Z,13.67
2023-03-06T10:39:20.330Z,13.90
2023-03-06T10:41:48.678Z,13.90
2023-03-06T10:44:15.268Z,14.07
2023-03-06T10:46:44.825Z,14.30
2023-03-06T10:49:30.150Z,12.80
2023-03-06T10:52:05.551Z,13.00
2023-03-06T10:54:41.252Z,16.63
2023-03-06T10:57:27.953Z,13.30
2023-03-06T11:00:00.448Z,14.00
2023-03-06T11:02:32.097Z,13.70
2023-03-06T11:05:01.433Z,14.23
2023-03-06T11:07:33.767Z,14.15
2023-03-06T11:10:07.970Z,13.10
2023-03-06T11:12:36.143Z,14.00
2023-03-06T11:15:15.085Z,13.37
2023-03-06T11:18:01.608Z,12.77
2023-03-06T11:20:52.164Z,12.37
2023-03-06T11:23:22.342Z,12.80
2023-03-06T11:26:15.333Z,13.65
2023-03-06T11:28:57.036Z,13.30
2023-03-06T11:31:36.346Z,14.33
2023-03-06T11:34:12.381Z,14.07
2023-03-06T11:37:10.283Z,17.92
2023-03-06T11:39:40.652Z,12.30
2023-03-06T11:42:29.471Z,12.43
2023-03-06T11:45:24.049Z,12.70
2023-03-06T11:48:12.482Z,12.20
2023-03-06T11:50:51.872Z,14.90
2023-03-06T11:53:37.652Z,14.03
2023-03-06T11:56:19.401Z,14.33
2023-03-06T11:59:04.161Z,13.73
2023-03-06T12:01:48.977Z,13.75
2023-03-06T12:04:34.190Z,14.10
2023-03-06T12:07:15.789Z,12.63
2023-03-06T12:09:45.417Z,14.45
2023-03-06T12:14:52.472Z,13.02
2023-03-06T12:17:26.944Z,14.83
2023-03-06T12:20:14.211Z,14.93
2023-03-06T12:22:58.013Z,15.38
2023-03-06T12:25:47.352Z,14.25
2023-03-06T12:28:34.069Z,12.88
2023-03-06T12:31:26.804Z,14.02
2023-03-06T12:34:12.118Z,18.77
2023-03-06T12:36:44.093Z,13.23
2023-03-06T12:39:21.563Z,13.30
2023-03-06T12:42:22.619Z,14.90
2023-03-06T12:45:25.739Z,14.13
2023-03-06T12:47:56.659Z,13.65
2023-03-06T12:50:29.464Z,14.38
2023-03-06T12:53:03.198Z,16.92
2023-03-06T12:55:41.608Z,14.68
2023-03-06T12:58:29.986Z,14.77
2023-03-06T13:01:10.323Z,16.27
2023-03-06T13:04:13.025Z,21.55
2023-03-06T13:07:07.725Z,16.70
2023-03-06T13:09:34.373Z,14.10
2023-03-06T13:12:35.022Z,13.80
2023-03-06T13:15:29.481Z,12.57
2023-03-06T13:17:56.865Z,16.20
2023-03-06T13:20:42.829Z,14.83
2023-03-06T13:23:41.875Z,12.97
2023-03-06T13:26:31.281Z,12.30
2023-03-06T13:28:58.697Z,13.13
2023-03-06T13:31:32.668Z,11.85
2023-03-06T13:34:01.506Z,12.65
2023-03-06T13:36:32.474Z,13.57
2023-03-06T13:39:03.493Z,12.93
2023-03-06T13:41:37.813Z,13.70
2023-03-06T13:44:28.163Z,13.50
2023-03-06T13:47:05.821Z,14.53
2023-03-06T13:49:34.444Z,11.85
2023-03-06T13:52:17.800Z,15.00
2023-03-06T13:55:13.189Z,17.55
2023-03-06T13:57:58.004Z,14.35
2023-03-06T14:00:55.697Z,13.15
2023-03-06T14:04:00.666Z,13.95
2023-03-06T14:06:37.276Z,15.55
2023-03-06T14:09:06.619Z,12.65
2023-03-06T14:11:35.178Z,12.45
2023-03-06T14:14:02.271Z,11.20
2023-03-06T14:16:49.397Z,14.13
2023-03-06T14:19:18.763Z,13.02
2023-03-06T14:21:47.682Z,12.63
2023-03-06T14:24:27.519Z,11.52
2023-03-06T14:26:54.193Z,11.45
2023-03-06T14:29:26.256Z,11.35
2023-03-06T14:31:55.795Z,11.88
2023-03-06T14:34:28.700Z,12.70
2023-03-06T14:37:01.651Z,12.57
2023-03-06T14:39:41.846Z,13.05
2023-03-06T14:42:24.691Z,13.27
2023-03-06T14:45:02.465Z,11.60
2023-03-06T14:47:31.819Z,12.93
2023-03-06T14:50:21.658Z,12.05
2023-03-06T14:52:49.949Z,13.35
2023-03-06T14:55:22.062Z,17.33
2023-03-06T14:58:11.615Z,13.15
2023-03-06T15:00:44.730Z,18.50
2023-03-06T15:03:22.186Z,18.80
2023-03-06T15:05:50.890Z,18.33
2023-03-06T15:08:21.931Z,12.32
2023-03-06T15:11:00.470Z,11.45
2023-03-06T15:13:30.553Z,11.77
2023-03-06T15:16:22.602Z,12.68
2023-03-06T15:19:03.665Z,17.60
2023-03-06T15:21:38.718Z,11.95
2023-03-06T15:24:31.821Z,15.13
2023-03-06T15:27:02.254Z,14.90
2023-03-06T15:29:29.033Z,27.13
2023-03-06T15:32:13.585Z,13.15
2023-03-06T15:34:40.443Z,14.27
2023-03-06T15:37:26.675Z,15.45
2023-03-06T15:40:09.129Z,13.25
2023-03-06T15:42:36.511Z,17.92
2023-03-06T15:45:22.603Z,12.15
2023-03-06T15:47:51.427Z,11.25
2023-03-06T15:50:28.691Z,11.98
2023-03-06T15:52:55.371Z,21.40
2023-03-06T15:55:25.901Z,11.57
2023-03-06T15:57:59.772Z,13.50
2023-03-06T16:00:29.782Z,10.82
2023-03-06T16:02:57.477Z,10.88
2023-03-06T16:05:24.726Z,12.13
2023-03-06T16:07:51.971Z,10.65
2023-03-06T16:10:28.168Z,11.20
2023-03-06T16:13:02.899Z,19.08
2023-03-06T16:15:33.058Z,13.73
2023-03-06T16:18:00.143Z,14.23
2023-03-06T16:20:29.101Z,11.65
2023-03-06T16:22:56.560Z,16.38
2023-03-06T16:25:24.808Z,12.93
2023-03-06T16:27:56.769Z,13.60
2023-03-06T16:30:25.199Z,12.85
2023-03-06T16:32:52.187Z,16.73
2023-03-06T16:35:19.022Z,17.55
2023-03-06T16:37:46.897Z,10.57
2023-03-06T16:40:22.966Z,13.48
2023-03-06T16:42:52.737Z,13.55
2023-03-06T16:45:21.766Z,11.93
2023-03-06T16:47:49.318Z,14.13
2023-03-06T16:50:25.253Z,9.70
2023-03-06T16:52:53.043Z,11.07
2023-03-06T16:55:20.097Z,11.32
2023-03-06T16:57:46.771Z,9.18
2023-03-06T17:00:14.307Z,9.60
2023-03-06T17:02:41.333Z,11.00
2023-03-06T17:05:09.527Z,10.60
2023-03-06T17:07:37.647Z,9.27
2023-03-06T17:10:06.377Z,10.00
2023-03-06T17:12:33.014Z,11.32
2023-03-06T17:15:00.294Z,10.35
2023-03-06T17:17:27.025Z,11.85
2023-03-06T17:19:53.741Z,14.15
2023-03-06T17:22:20.789Z,13.68
2023-03-06T17:24:52.137Z,13.20
2023-03-06T17:27:20.657Z,13.02
2023-03-06T17:29:47.751Z,11.23
2023-03-06T17:32:14.494Z,12.25
2023-03-06T17:34:41.532Z,12.27
2023-03-06T17:37:08.257Z,11.93
2023-03-06T17:39:36.795Z,11.65
2023-03-06T17:42:04.661Z,12.93
2023-03-06T17:44:34.823Z,11.02
2023-03-06T17:47:02.756Z,10.68
2023-03-06T17:49:29.667Z,25.75
2023-03-06T17:51:59.679Z,19.35
2023-03-06T17:54:27.027Z,17.55
2023-03-06T17:56:53.795Z,11.45
2023-03-06T17:59:20.467Z,8.65
2023-03-06T18:01:47.281Z,8.48
2023-03-06T18:04:13.911Z,7.93
2023-03-06T18:06:40.591Z,9.60
2023-03-06T18:09:07.870Z,7.25
2023-03-06T18:11:34.527Z,8.63
2023-03-06T18:14:01.213Z,12.43
2023-03-06T18:16:27.902Z,11.00
2023-03-06T18:18:56.360Z,11.48
2023-03-06T18:21:23.972Z,9.88
2023-03-06T18:23:51.150Z,9.90
2023-03-06T18:26:20.808Z,9.73
2023-03-06T18:28:51.971Z,12.18
2023-03-06T18:31:23.320Z,10.77
2023-03-06T18:33:51.635Z,8.82
2023-03-06T18:36:18.831Z,10.50
2023-03-06T18:38:45.885Z,8.35
2023-03-06T18:41:13.680Z,10.23
2023-03-06T18:43:40.429Z,9.80
2023-03-06T18:46:07.363Z,11.13
2023-03-06T18:48:34.067Z,10.52
2023-03-06T18:51:08.793Z,11.20
2023-03-06T18:53:36.526Z,13.60
2023-03-06T18:56:03.793Z,19.90
2023-03-06T18:58:30.440Z,32.47
2023-03-06T19:00:59.274Z,29.50
2023-03-06T19:03:26.201Z,27.27
2023-03-06T19:05:52.929Z,16.50
2023-03-06T19:08:19.769Z,16.38
2023-03-06T19:10:48.557Z,14.70
2023-03-06T19:13:15.450Z,24.33
2023-03-06T19:15:45.518Z,38.30
2023-03-06T19:18:14.286Z,32.83
2023-03-06T19:20:40.937Z,25.70
2023-03-06T19:23:08.142Z,18.10
2023-03-06T19:25:35.400Z,16.60
2023-03-06T19:28:02.979Z,14.20
2023-03-06T19:30:29.657Z,21.13
2023-03-06T19:32:56.589Z,18.55
2023-03-06T19:35:24.737Z,16.35
2023-03-06T19:37:51.991Z,21.83
2023-03-06T19:40:19.269Z,25.17
2023-03-06T19:42:46.573Z,23.60
2023-03-06T19:45:13.472Z,19.75
2023-03-06T19:47:40.101Z,17.55
2023-03-06T19:50:07.341Z,15.85
2023-03-06T19:52:36.585Z,13.55
2023-03-06T19:55:03.547Z,11.63
2023-03-06T19:57:30.223Z,11.57
2023-03-06T19:59:58.580Z,12.30
2023-03-06T20:02:27.172Z,11.32
2023-03-06T20:04:54.741Z,11.40
2023-03-06T20:07:21.786Z,10.73
2023-03-06T20:09:48.516Z,10.40
2023-03-06T20:12:15.645Z,14.43
2023-03-06T20:14:42.769Z,10.35
2023-03-06T20:17:09.543Z,10.50
2023-03-06T20:19:36.678Z,12.15
2023-03-06T20:22:03.679Z,13.50
2023-03-06T20:24:30.392Z,10.60
2023-03-06T20:26:58.431Z,10.75
2023-03-06T20:29:28.143Z,9.75
2023-03-06T20:31:56.838Z,10.90
2023-03-06T20:34:24.826Z,11.73
2023-03-06T20:36:51.587Z,10.50
2023-03-06T20:39:21.792Z,10.48
2023-03-06T20:41:48.789Z,10.63
2023-03-06T20:44:19.542Z,10.63
2023-03-06T20:46:47.387Z,9.77
2023-03-06T20:49:14.256Z,9.38
2023-03-06T20:51:41.749Z,9.82
2023-03-06T20:54:11.176Z,11.18
2023-03-06T20:56:39.605Z,9.85
2023-03-06T20:59:07.078Z,11.85
2023-03-06T21:01:36.161Z,9.82
2023-03-06T21:04:06.636Z,11.05
2023-03-06T21:06:33.509Z,10.68
2023-03-06T21:09:00.979Z,11.95
2023-03-06T21:11:28.469Z,11.77
2023-03-06T21:13:55.895Z,11.40
2023-03-06T21:16:24.617Z,11.90
2023-03-06T21:18:53.480Z,12.57
2023-03-06T21:21:22.866Z,13.13
2023-03-06T21:23:49.805Z,12.60
2023-03-06T21:26:19.256Z,12.45
2023-03-06T21:28:46.472Z,11.40
2023-03-06T21:31:15.699Z,10.65
2023-03-06T21:33:43.399Z,11.50
2023-03-06T21:36:10.524Z,11.48
2023-03-06T21:38:37.784Z,10.15
2023-03-06T21:41:12.358Z,10.73
2023-03-06T21:43:39.670Z,10.48
2023-03-06T21:46:06.529Z,11.75
2023-03-06T21:48:33.458Z,12.27
2023-03-06T21:51:08.186Z,10.80
2023-03-06T21:53:35.630Z,10.93
2023-03-06T21:56:03.398Z,10.50
2023-03-06T21:58:30.731Z,10.52
2023-03-06T22:00:57.720Z,10.30
2023-03-06T22:03:24.760Z,10.00
2023-03-06T22:05:52.830Z,10.75
2023-03-06T22:08:24.375Z,10.30
2023-03-06T22:10:51.032Z,11.35
2023-03-06T22:13:17.832Z,10.80
2023-03-06T22:15:52.559Z,11.75
2023-03-06T22:18:19.245Z,11.52
2023-03-06T22:20:45.874Z,10.73
2023-03-06T22:23:12.574Z,11.10
2023-03-06T22:25:39.254Z,12.35
2023-03-06T22:28:06.113Z,10.25
2023-03-06T22:30:32.751Z,12.00
2023-03-06T22:32:59.587Z,12.30
2023-03-06T22:35:26.311Z,12.18
2023-03-06T22:37:53.265Z,11.00
2023-03-06T22:40:20.015Z,12.63
2023-03-06T22:42:46.795Z,10.52
2023-03-06T22:45:13.440Z,10.27
2023-03-06T22:47:40.122Z,11.60
2023-03-06T22:50:07.100Z,12.93
2023-03-06T22:52:33.957Z,11.13
2023-03-06T22:55:00.746Z,10.80
2023-03-06T22:57:27.437Z,12.10
2023-03-06T22:59:54.093Z,10.40
2023-03-06T23:02:20.925Z,10.93
2023-03-06T23:04:53.467Z,11.80
2023-03-06T23:07:20.900Z,10.98
2023-03-06T23:09:47.631Z,11.00
2023-03-06T23:12:14.305Z,10.85
2023-03-06T23:14:41.087Z,11.60
2023-03-06T23:17:07.790Z,11.75
2023-03-06T23:19:34.526Z,12.27
2023-03-06T23:22:01.176Z,12.27
2023-03-06T23:24:28.641Z,11.00
2023-03-06T23:26:55.354Z,12.60
2023-03-06T23:29:22.395Z,11.10
2023-03-06T23:31:49.080Z,10.70
2023-03-06T23:34:16.894Z,11.80
2023-03-06T23:36:43.568Z,11.43
2023-03-06T23:39:12.736Z,11.70
2023-03-06T23:41:39.388Z,11.32
2023-03-06T23:44:06.031Z,10.80
2023-03-06T23:46:32.776Z,11.02
2023-03-06T23:48:59.454Z,12.00
2023-03-06T23:51:26.141Z,11.88
2023-03-06T23:53:56.042Z,11.80
2023-03-06T23:56:24.807Z,11.13
2023-03-06T23:58:51.948Z,12.25
